Observation data for Turkey on 06/26/2019      Previous  Date  Next       Current Mesonet Observations  Soil Data  Daily Summary Page  Observations in Plain Language
KTUR 260500Z 11008KT 24/11 A3005 RMK A01 T02410114  RH  045%=      5-min Rain = 0
KTUR 260505Z 13008KT 25/11 A3004 RMK A01 T02450112  RH  044%=      5-min Rain = 0
KTUR 260510Z 14009KT 24/12 A3004 RMK A01 T02410119  RH  047%=      5-min Rain = 0
KTUR 260515Z 15009KT 24/11 A3004 RMK A01 T02410114  RH  046%=      5-min Rain = 0
KTUR 260520Z 15011KT 24/12 A3004 RMK A01 T02440118  RH  046%=      5-min Rain = 0
KTUR 260525Z 16010KT 24/13 A3004 RMK A01 T02430125  RH  049%=      5-min Rain = 0
KTUR 260530Z 16011KT 25/12 A3005 RMK A01 T02460122  RH  047%=      5-min Rain = 0
KTUR 260535Z 17013G18KT 24/13 A3005 RMK A01 T02420128  RH  050%=      5-min Rain = 0
KTUR 260540Z 19011KT 23/13 A3004 RMK A01 T02320129  RH  053%=      5-min Rain = 0
KTUR 260545Z 19012KT 22/13 A3003 RMK A01 T02240128  RH  055%=      5-min Rain = 0
KTUR 260550Z 18013KT 22/13 A3003 RMK A01 T02240130  RH  056%=      5-min Rain = 0
KTUR 260555Z 18014KT 23/13 A3003 RMK A01 T02280129  RH  055%=      5-min Rain = 0
KTUR 260600Z 18012KT 23/13 A3003 RMK A01 T02300130  RH  055%=      5-min Rain = 0
KTUR 260605Z 19012KT 23/13 A3003 RMK A01 T02260132  RH  056%=      5-min Rain = 0
KTUR 260610Z 19013KT 23/13 A3002 RMK A01 T02260133  RH  057%=      5-min Rain = 0
KTUR 260615Z 19013KT 23/13 A3002 RMK A01 T02280134  RH  056%=      5-min Rain = 0
KTUR 260620Z 19012KT 23/14 A3002 RMK A01 T02280135  RH  057%=      5-min Rain = 0
KTUR 260625Z 19012KT 23/14 A3002 RMK A01 T02280136  RH  057%=      5-min Rain = 0
KTUR 260630Z 19013KT 23/14 A3001 RMK A01 T02290138  RH  058%=      5-min Rain = 0
KTUR 260635Z 19014KT 23/14 A3001 RMK A01 T02290141  RH  059%=      5-min Rain = 0
KTUR 260640Z 18015KT 23/14 A30 RMK A01 T02310144  RH  059%=      5-min Rain = 0
KTUR 260645Z 18016KT 23/15 A30 RMK A01 T02340146  RH  059%=      5-min Rain = 0
KTUR 260650Z 17015KT 24/15 A30 RMK A01 T02360148  RH  059%=      5-min Rain = 0
KTUR 260655Z 17012KT 24/15 A3001 RMK A01 T02370149  RH  059%=      5-min Rain = 0
KTUR 260700Z 17013KT 24/15 A30 RMK A01 T02370150  RH  060%=      5-min Rain = 0
KTUR 260705Z 18014KT 23/15 A2998 RMK A01 T02340151  RH  061%=      5-min Rain = 0
KTUR 260710Z 18015KT 23/15 A2998 RMK A01 T02330152  RH  062%=      5-min Rain = 0
KTUR 260715Z 19015KT 24/16 A2997 RMK A01 T02360155  RH  062%=      5-min Rain = 0
KTUR 260720Z 18017KT 24/16 A2997 RMK A01 T02400156  RH  061%=      5-min Rain = 0
KTUR 260725Z 18016KT 24/16 A2997 RMK A01 T02410156  RH  060%=      5-min Rain = 0
KTUR 260730Z 18018G24KT 24/16 A2996 RMK A01 T02440156  RH  059%=      5-min Rain = 0
KTUR 260735Z 18018G24KT 25/16 A2996 RMK A01 T02460156  RH  059%=      5-min Rain = 0
KTUR 260740Z 18019G24KT 25/16 A2996 RMK A01 T02450156  RH  059%=      5-min Rain = 0
KTUR 260745Z 19020KT 25/16 A2995 RMK A01 T02460157  RH  059%=      5-min Rain = 0
KTUR 260750Z 19020KT 25/16 A2995 RMK A01 T02470159  RH  059%=      5-min Rain = 0
KTUR 260755Z 18019G24KT 25/16 A2995 RMK A01 T02480160  RH  059%=      5-min Rain = 0
KTUR 260800Z 18019G24KT 25/16 A2995 RMK A01 T02500161  RH  059%=      5-min Rain = 0
KTUR 260805Z 18019G25KT 25/16 A2995 RMK A01 T02520161  RH  058%=      5-min Rain = 0
KTUR 260810Z 18018KT 25/16 A2996 RMK A01 T02520162  RH  058%=      5-min Rain = 0
KTUR 260815Z 18015KT 25/16 A2996 RMK A01 T02510163  RH  059%=      5-min Rain = 0
KTUR 260820Z 18012G17KT 25/16 A2997 RMK A01 T02500163  RH  060%=      5-min Rain = 0
KTUR 260825Z 15009KT 25/16 A2998 RMK A01 T02490163  RH  060%=      5-min Rain = 0
KTUR 260830Z 11009KT 25/16 A2999 RMK A01 T02480162  RH  060%=      5-min Rain = 0
KTUR 260835Z 08009KT 24/16 A30 RMK A01 T02410160  RH  062%=      5-min Rain = 0
KTUR 260840Z 11008KT 24/16 A30 RMK A01 T02380160  RH  063%=      5-min Rain = 0
KTUR 260845Z 13007KT 24/16 A2999 RMK A01 T02380160  RH  063%=      5-min Rain = 0
KTUR 260850Z 11007KT 24/16 A30 RMK A01 T02350160  RH  064%=      5-min Rain = 0
KTUR 260855Z 09008KT 23/16 A30 RMK A01 T02310160  RH  066%=      5-min Rain = 0
KTUR 260900Z 10007KT 23/16 A30 RMK A01 T02270159  RH  067%=      5-min Rain = 0
KTUR 260905Z 13007KT 23/16 A30 RMK A01 T02290160  RH  066%=      5-min Rain = 0
KTUR 260910Z 14007KT 23/16 A30 RMK A01 T02280161  RH  067%=      5-min Rain = 0
KTUR 260915Z 14008KT 23/16 A30 RMK A01 T02320163  RH  066%=      5-min Rain = 0
KTUR 260920Z 14008KT 23/16 A30 RMK A01 T02340163  RH  066%=      5-min Rain = 0
KTUR 260925Z 14007KT 23/16 A3001 RMK A01 T02320163  RH  067%=      5-min Rain = 0
KTUR 260930Z 14007KT 23/16 A3001 RMK A01 T02270162  RH  068%=      5-min Rain = 0
KTUR 260935Z 15007KT 22/16 A3001 RMK A01 T02240162  RH  070%=      5-min Rain = 0
KTUR 260940Z 17008KT 22/16 A30 RMK A01 T02240162  RH  069%=      5-min Rain = 0
KTUR 260945Z 18009KT 23/16 A30 RMK A01 T02250163  RH  070%=      5-min Rain = 0
KTUR 260950Z 18009KT 23/16 A30 RMK A01 T02270164  RH  069%=      5-min Rain = 0
KTUR 260955Z 18008KT 23/17 A3001 RMK A01 T02250165  RH  071%=      5-min Rain = 0
KTUR 261000Z 19008KT 23/17 A3001 RMK A01 T02250166  RH  071%=      5-min Rain = 0
KTUR 261005Z 19009KT 23/17 A3001 RMK A01 T02270167  RH  071%=      5-min Rain = 0
KTUR 261010Z 19010KT 23/17 A3001 RMK A01 T02290167  RH  070%=      5-min Rain = 0
KTUR 261015Z 18010KT 23/17 A3001 RMK A01 T02300168  RH  069%=      5-min Rain = 0
KTUR 261020Z 17010KT 23/17 A3001 RMK A01 T02310168  RH  069%=      5-min Rain = 0
KTUR 261025Z 17008KT 23/17 A3001 RMK A01 T02300167  RH  069%=      5-min Rain = 0
KTUR 261030Z 18008KT 23/17 A3002 RMK A01 T02290167  RH  070%=      5-min Rain = 0
KTUR 261035Z 19008KT 23/17 A3002 RMK A01 T02280168  RH  070%=      5-min Rain = 0
KTUR 261040Z 19008KT 23/17 A3002 RMK A01 T02270168  RH  071%=      5-min Rain = 0
KTUR 261045Z 18009KT 23/17 A3002 RMK A01 T02290168  RH  070%=      5-min Rain = 0
KTUR 261050Z 18009KT 23/17 A3003 RMK A01 T02280168  RH  071%=      5-min Rain = 0
KTUR 261055Z 19009KT 23/17 A3003 RMK A01 T02280168  RH  071%=      5-min Rain = 0
KTUR 261100Z 19008KT 23/17 A3003 RMK A01 T02260169  RH  072%=      5-min Rain = 0
KTUR 261105Z 19007KT 22/17 A3003 RMK A01 T02230169  RH  073%=      5-min Rain = 0
KTUR 261110Z 19006KT 22/17 A3004 RMK A01 T02190169  RH  075%=      5-min Rain = 0
KTUR 261115Z 17004KT 22/17 A3005 RMK A01 T02170168  RH  076%=      5-min Rain = 0
KTUR 261120Z 15004KT 22/17 A3005 RMK A01 T02170168  RH  076%=      5-min Rain = 0
KTUR 261125Z 16003KT 22/17 A3005 RMK A01 T02180168  RH  075%=      5-min Rain = 0
KTUR 261130Z 17003KT 22/17 A3005 RMK A01 T02190168  RH  075%=      5-min Rain = 0
KTUR 261135Z 16004KT 22/17 A3005 RMK A01 T02180168  RH  075%=      5-min Rain = 0
KTUR 261140Z 15003KT 22/17 A3005 RMK A01 T02160167  RH  075%=      5-min Rain = 0
KTUR 261145Z 16003KT 22/17 A3005 RMK A01 T02180167  RH  075%=      5-min Rain = 0
KTUR 261150Z 17005KT 22/17 A3005 RMK A01 T02190167  RH  074%=      5-min Rain = 0
KTUR 261155Z 16006KT 22/17 A3005 RMK A01 T02210168  RH  074%=      5-min Rain = 0
KTUR 261200Z 16007KT 22/17 A3006 RMK A01 T02190168  RH  075%=      5-min Rain = 0
KTUR 261205Z 17007KT 22/17 A3006 RMK A01 T02190169  RH  075%=      5-min Rain = 0
KTUR 261210Z 17007KT 22/17 A3006 RMK A01 T02190169  RH  075%=      5-min Rain = 0
KTUR 261215Z 17006KT 22/17 A3006 RMK A01 T02190170  RH  075%=      5-min Rain = 0
KTUR 261220Z 18006KT 22/17 A3006 RMK A01 T02200171  RH  075%=      5-min Rain = 0
KTUR 261225Z 18005KT 22/17 A3006 RMK A01 T02210171  RH  075%=      5-min Rain = 0
KTUR 261230Z 15004KT 22/17 A3006 RMK A01 T02220172  RH  075%=      5-min Rain = 0
KTUR 261235Z 14005KT 23/17 A3007 RMK A01 T02260172  RH  073%=      5-min Rain = 0
KTUR 261240Z 16005KT 23/17 A3007 RMK A01 T02290172  RH  072%=      5-min Rain = 0
KTUR 261245Z 17006KT 23/17 A3007 RMK A01 T02300172  RH  072%=      5-min Rain = 0
KTUR 261250Z 18006KT 23/17 A3007 RMK A01 T02310173  RH  071%=      5-min Rain = 0
KTUR 261255Z 17005KT 23/18 A3007 RMK A01 T02320175  RH  072%=      5-min Rain = 0
KTUR 261300Z 18005KT 23/18 A3007 RMK A01 T02340175  RH  071%=      5-min Rain = 0
KTUR 261305Z 17005KT 24/18 A3007 RMK A01 T02360176  RH  071%=      5-min Rain = 0
KTUR 261310Z 17005KT 24/18 A3007 RMK A01 T02400178  RH  070%=      5-min Rain = 0
KTUR 261315Z 18007KT 24/18 A3007 RMK A01 T02420177  RH  069%=      5-min Rain = 0
KTUR 261320Z 18007KT 25/18 A3007 RMK A01 T02460179  RH  068%=      5-min Rain = 0
KTUR 261325Z 18010KT 25/18 A3007 RMK A01 T02470177  RH  067%=      5-min Rain = 0
KTUR 261330Z 18010KT 25/18 A3008 RMK A01 T02480178  RH  066%=      5-min Rain = 0
KTUR 261335Z 18011KT 25/18 A3008 RMK A01 T02490178  RH  066%=      5-min Rain = 0
KTUR 261340Z 18012KT 25/18 A3008 RMK A01 T02510178  RH  066%=      5-min Rain = 0
KTUR 261345Z 19012KT 25/18 A3008 RMK A01 T02520178  RH  065%=      5-min Rain = 0
KTUR 261350Z 19013KT 25/18 A3008 RMK A01 T02530178  RH  065%=      5-min Rain = 0
KTUR 261355Z 19013KT 26/18 A3008 RMK A01 T02550178  RH  064%=      5-min Rain = 0
KTUR 261400Z 19013KT 26/18 A3009 RMK A01 T02570178  RH  063%=      5-min Rain = 0
KTUR 261405Z 19013KT 26/18 A3009 RMK A01 T02570179  RH  063%=      5-min Rain = 0
KTUR 261410Z 19012G17KT 26/18 A3009 RMK A01 T02590179  RH  063%=      5-min Rain = 0
KTUR 261415Z 19013KT 26/18 A3009 RMK A01 T02600179  RH  063%=      5-min Rain = 0
KTUR 261420Z 19012KT 26/18 A3009 RMK A01 T02640180  RH  062%=      5-min Rain = 0
KTUR 261425Z 18013KT 26/18 A3009 RMK A01 T02640179  RH  061%=      5-min Rain = 0
KTUR 261430Z 20012KT 27/18 A3009 RMK A01 T02650180  RH  061%=      5-min Rain = 0
KTUR 261435Z 21013KT 27/18 A3009 RMK A01 T02680179  RH  060%=      5-min Rain = 0
KTUR 261440Z 20014KT 27/18 A3009 RMK A01 T02680178  RH  059%=      5-min Rain = 0
KTUR 261445Z 19013KT 27/18 A301 RMK A01 T02700179  RH  059%=      5-min Rain = 0
KTUR 261450Z 20013KT 27/18 A301 RMK A01 T02730178  RH  058%=      5-min Rain = 0
KTUR 261455Z 20013KT 28/18 A301 RMK A01 T02750178  RH  057%=      5-min Rain = 0
KTUR 261500Z 19010KT 28/18 A301 RMK A01 T02790180  RH  057%=      5-min Rain = 0
KTUR 261505Z 19010KT 28/18 A301 RMK A01 T02800177  RH  055%=      5-min Rain = 0
KTUR 261510Z 19010KT 28/18 A301 RMK A01 T02810177  RH  054%=      5-min Rain = 0
KTUR 261515Z 19009KT 28/18 A301 RMK A01 T02830178  RH  054%=      5-min Rain = 0
KTUR 261520Z 18010G15KT 28/18 A301 RMK A01 T02840176  RH  053%=      5-min Rain = 0
KTUR 261525Z 18012KT 29/17 A301 RMK A01 T02860172  RH  051%=      5-min Rain = 0
KTUR 261530Z 19012KT 29/17 A301 RMK A01 T02860172  RH  051%=      5-min Rain = 0
KTUR 261535Z 19011KT 29/17 A301 RMK A01 T02880172  RH  051%=      5-min Rain = 0
KTUR 261540Z 19010KT 29/17 A301 RMK A01 T02890172  RH  050%=      5-min Rain = 0
KTUR 261545Z 19009KT 29/17 A301 RMK A01 T02900173  RH  050%=      5-min Rain = 0
KTUR 261550Z 19009KT 29/17 A301 RMK A01 T02920173  RH  050%=      5-min Rain = 0
KTUR 261555Z 18006KT 29/17 A301 RMK A01 T02920173  RH  050%=      5-min Rain = 0
KTUR 261600Z 17012KT 30/17 A301 RMK A01 T02980169  RH  047%=      5-min Rain = 0
KTUR 261605Z 16009G14KT 30/17 A3011 RMK A01 T02990169  RH  047%=      5-min Rain = 0
KTUR 261610Z 17009G14KT 30/17 A301 RMK A01 T03020171  RH  046%=      5-min Rain = 0
KTUR 261615Z 16010G15KT 30/17 A301 RMK A01 T03010167  RH  045%=      5-min Rain = 0
KTUR 261620Z 17008KT 30/17 A301 RMK A01 T03010169  RH  046%=      5-min Rain = 0
KTUR 261625Z 18009G14KT 30/17 A301 RMK A01 T03030169  RH  046%=      5-min Rain = 0
KTUR 261630Z 19009G14KT 30/17 A301 RMK A01 T03030169  RH  046%=      5-min Rain = 0
KTUR 261635Z 15009KT 31/17 A301 RMK A01 T03070166  RH  044%=      5-min Rain = 0
KTUR 261640Z 15010G15KT 31/16 A3011 RMK A01 T03090162  RH  042%=      5-min Rain = 0
KTUR 261645Z 14010G16KT 31/16 A301 RMK A01 T03100162  RH  042%=      5-min Rain = 0
KTUR 261650Z 15009G16KT 31/16 A301 RMK A01 T03120163  RH  042%=      5-min Rain = 0
KTUR 261655Z 17011KT 31/16 A301 RMK A01 T03120163  RH  042%=      5-min Rain = 0
KTUR 261700Z 15006KT 31/16 A301 RMK A01 T03080163  RH  043%=      5-min Rain = 0
KTUR 261705Z 17007G12KT 31/16 A301 RMK A01 T03110164  RH  042%=      5-min Rain = 0
KTUR 261710Z 15010KT 32/16 A301 RMK A01 T03170163  RH  041%=      5-min Rain = 0
KTUR 261715Z 15010G17KT 32/16 A301 RMK A01 T03190157  RH  039%=      5-min Rain = 0
KTUR 261720Z 14012G17KT 32/16 A301 RMK A01 T03200159  RH  039%=      5-min Rain = 0
KTUR 261725Z 16010KT 32/16 A301 RMK A01 T03180162  RH  040%=      5-min Rain = 0
KTUR 261730Z 17013G19KT 32/16 A3009 RMK A01 T03190160  RH  039%=      5-min Rain = 0
KTUR 261735Z 15011G17KT 32/16 A3009 RMK A01 T03190162  RH  040%=      5-min Rain = 0
KTUR 261740Z 14011G18KT 32/17 A3009 RMK A01 T03230165  RH  040%=      5-min Rain = 0
KTUR 261745Z 14013G18KT 33/16 A3009 RMK A01 T03260163  RH  038%=      5-min Rain = 0
KTUR 261750Z 16012KT 33/16 A3009 RMK A01 T03260159  RH  038%=      5-min Rain = 0
KTUR 261755Z 15011G17KT 33/16 A3009 RMK A01 T03250159  RH  038%=      5-min Rain = 0
KTUR 261800Z 14011KT 32/16 A3009 RMK A01 T03240158  RH  038%=      5-min Rain = 0
KTUR 261805Z 12011KT 33/16 A3009 RMK A01 T03270159  RH  037%=      5-min Rain = 0
KTUR 261810Z 14012G18KT 33/15 A3009 RMK A01 T03280153  RH  036%=      5-min Rain = 0
KTUR 261815Z 13014G21KT 33/16 A3009 RMK A01 T03290156  RH  036%=      5-min Rain = 0
KTUR 261820Z 13013KT 33/15 A3009 RMK A01 T03330153  RH  035%=      5-min Rain = 0
KTUR 261825Z 14014KT 33/15 A3009 RMK A01 T03320150  RH  034%=      5-min Rain = 0
KTUR 261830Z 13013G24KT 33/15 A3009 RMK A01 T03320148  RH  034%=      5-min Rain = 0
KTUR 261835Z 14016G21KT 33/15 A3009 RMK A01 T03340154  RH  035%=      5-min Rain = 0
KTUR 261840Z 13014G20KT 33/15 A3009 RMK A01 T03320152  RH  035%=      5-min Rain = 0
KTUR 261845Z 14015G22KT 34/15 A3009 RMK A01 T03350146  RH  033%=      5-min Rain = 0
KTUR 261850Z 14016G21KT 33/15 A3009 RMK A01 T03320148  RH  034%=      5-min Rain = 0
KTUR 261855Z 13014KT 33/15 A3009 RMK A01 T03300149  RH  034%=      5-min Rain = 0
KTUR 261900Z 15012G19KT 33/16 A3008 RMK A01 T03300157  RH  036%=      5-min Rain = 0
KTUR 261905Z 13014G19KT 33/16 A3008 RMK A01 T03330158  RH  036%=      5-min Rain = 0
KTUR 261910Z 15015G20KT 33/16 A3008 RMK A01 T03330158  RH  036%=      5-min Rain = 0
KTUR 261915Z 15014G20KT 33/15 A3008 RMK A01 T03320152  RH  035%=      5-min Rain = 0
KTUR 261920Z 14018G23KT 33/15 A3008 RMK A01 T03340153  RH  034%=      5-min Rain = 0
KTUR 261925Z 14014G21KT 33/16 A3008 RMK A01 T03310157  RH  036%=      5-min Rain = 0
KTUR 261930Z 14015G21KT 33/16 A3008 RMK A01 T03290158  RH  037%=      5-min Rain = 0
KTUR 261935Z 15015G20KT 33/15 A3008 RMK A01 T03340153  RH  035%=      5-min Rain = 0
KTUR 261940Z 14015G23KT 33/15 A3008 RMK A01 T03340154  RH  035%=      5-min Rain = 0
KTUR 261945Z 14013G20KT 33/17 A3007 RMK A01 T03340165  RH  037%=      5-min Rain = 0
KTUR 261950Z 14014KT 34/17 A3008 RMK A01 T03360167  RH  037%=      5-min Rain = 0
KTUR 261955Z 14015G21KT 34/17 A3007 RMK A01 T03360165  RH  037%=      5-min Rain = 0
KTUR 262000Z 14016KT 34/16 A3007 RMK A01 T03380164  RH  036%=      5-min Rain = 0
KTUR 262005Z 14016G23KT 34/16 A3007 RMK A01 T03360160  RH  036%=      5-min Rain = 0
KTUR 262010Z 13015G21KT 34/16 A3007 RMK A01 T03350163  RH  037%=      5-min Rain = 0
KTUR 262015Z 13014G19KT 33/16 A3007 RMK A01 T03340164  RH  037%=      5-min Rain = 0
KTUR 262020Z 15014G19KT 34/16 A3007 RMK A01 T03370164  RH  036%=      5-min Rain = 0
KTUR 262025Z 14016G21KT 34/16 A3006 RMK A01 T03390160  RH  035%=      5-min Rain = 0
KTUR 262030Z 14016G21KT 34/16 A3006 RMK A01 T03390158  RH  035%=      5-min Rain = 0
KTUR 262035Z 14014G20KT 34/16 A3006 RMK A01 T03360161  RH  036%=      5-min Rain = 0
KTUR 262040Z 15015G22KT 34/16 A3006 RMK A01 T03380159  RH  035%=      5-min Rain = 0
KTUR 262045Z 15016G22KT 34/16 A3006 RMK A01 T03400160  RH  035%=      5-min Rain = 0
KTUR 262050Z 16013G22KT 34/15 A3006 RMK A01 T03380153  RH  034%=      5-min Rain = 0
KTUR 262055Z 15013G20KT 34/15 A3006 RMK A01 T03380149  RH  033%=      5-min Rain = 0
KTUR 262100Z 13014G19KT 34/16 A3006 RMK A01 T03390161  RH  035%=      5-min Rain = 0
KTUR 262105Z 14015G21KT 34/16 A3006 RMK A01 T03420158  RH  034%=      5-min Rain = 0
KTUR 262110Z 14012G17KT 34/16 A3006 RMK A01 T03400161  RH  035%=      5-min Rain = 0
KTUR 262115Z 14015G21KT 34/15 A3005 RMK A01 T03420154  RH  033%=      5-min Rain = 0
KTUR 262120Z 14015G21KT 34/16 A3005 RMK A01 T03420160  RH  035%=      5-min Rain = 0
KTUR 262125Z 14015G21KT 34/16 A3005 RMK A01 T03420163  RH  035%=      5-min Rain = 0
KTUR 262130Z 16017G23KT 34/16 A3005 RMK A01 T03400156  RH  034%=      5-min Rain = 0
KTUR 262135Z 15014G20KT 34/16 A3005 RMK A01 T03380158  RH  035%=      5-min Rain = 0
KTUR 262140Z 16016KT 34/15 A3005 RMK A01 T03420150  RH  032%=      5-min Rain = 0
KTUR 262145Z 16013G18KT 34/15 A3005 RMK A01 T03410148  RH  032%=      5-min Rain = 0
KTUR 262150Z 15015G20KT 34/15 A3005 RMK A01 T03420150  RH  032%=      5-min Rain = 0
KTUR 262155Z 15012G18KT 34/15 A3005 RMK A01 T03410147  RH  032%=      5-min Rain = 0
KTUR 262200Z 15013G19KT 34/15 A3004 RMK A01 T03420153  RH  033%=      5-min Rain = 0
KTUR 262205Z 14017G23KT 34/16 A3004 RMK A01 T03400160  RH  035%=      5-min Rain = 0
KTUR 262210Z 15017G24KT 34/16 A3004 RMK A01 T03400158  RH  034%=      5-min Rain = 0
KTUR 262215Z 15015KT 34/16 A3004 RMK A01 T03390158  RH  035%=      5-min Rain = 0
KTUR 262220Z 15017G24KT 34/16 A3004 RMK A01 T03390158  RH  035%=      5-min Rain = 0
KTUR 262225Z 15015G20KT 34/16 A3004 RMK A01 T03390161  RH  035%=      5-min Rain = 0
KTUR 262230Z 15016KT 34/16 A3003 RMK A01 T03380160  RH  035%=      5-min Rain = 0
KTUR 262235Z 14017KT 34/16 A3003 RMK A01 T03380161  RH  036%=      5-min Rain = 0
KTUR 262240Z 14018G24KT 34/15 A3003 RMK A01 T03390153  RH  034%=      5-min Rain = 0
KTUR 262245Z 14015KT 34/16 A3003 RMK A01 T03390155  RH  034%=      5-min Rain = 0
KTUR 262250Z 15015KT 34/16 A3003 RMK A01 T03390158  RH  035%=      5-min Rain = 0
KTUR 262255Z 14018G24KT 33/16 A3003 RMK A01 T03340164  RH  037%=      5-min Rain = 0
KTUR 262300Z 14016G21KT 33/17 A3003 RMK A01 T03340165  RH  037%=      5-min Rain = 0
KTUR 262305Z 14017G25KT 34/17 A3003 RMK A01 T03350168  RH  038%=      5-min Rain = 0
KTUR 262310Z 13019G25KT 33/17 A3003 RMK A01 T03340170  RH  039%=      5-min Rain = 0
KTUR 262315Z 13018G24KT 33/17 A3003 RMK A01 T03320169  RH  039%=      5-min Rain = 0
KTUR 262320Z 13019G24KT 33/17 A3002 RMK A01 T03300169  RH  039%=      5-min Rain = 0
KTUR 262325Z 13018G23KT 33/17 A3002 RMK A01 T03290171  RH  040%=      5-min Rain = 0
KTUR 262330Z 13019G25KT 33/17 A3002 RMK A01 T03290171  RH  040%=      5-min Rain = 0
KTUR 262335Z 14019KT 33/17 A3002 RMK A01 T03290170  RH  040%=      5-min Rain = 0
KTUR 262340Z 14020G26KT 33/17 A3002 RMK A01 T03270169  RH  040%=      5-min Rain = 0
KTUR 262345Z 13018G23KT 33/17 A3002 RMK A01 T03260170  RH  040%=      5-min Rain = 0
KTUR 262350Z 13019G24KT 33/17 A3002 RMK A01 T03250168  RH  040%=      5-min Rain = 0
KTUR 262355Z 13019G24KT 32/17 A3002 RMK A01 T03210166  RH  040%=      5-min Rain = 0
KTUR 270000Z 15018KT 32/17 A3002 RMK A01 T03200167  RH  041%=      5-min Rain = 0
KTUR 270005Z 14018KT 32/16 A3002 RMK A01 T03200164  RH  040%=      5-min Rain = 0
KTUR 270010Z 14017KT 32/16 A3003 RMK A01 T03200164  RH  040%=      5-min Rain = 0
KTUR 270015Z 14017KT 32/16 A3003 RMK A01 T03200163  RH  040%=      5-min Rain = 0
KTUR 270020Z 15015G20KT 32/16 A3003 RMK A01 T03200163  RH  040%=      5-min Rain = 0
KTUR 270025Z 15017KT 32/16 A3003 RMK A01 T03180161  RH  040%=      5-min Rain = 0
KTUR 270030Z 14018KT 32/16 A3004 RMK A01 T03170160  RH  040%=      5-min Rain = 0
KTUR 270035Z 15016KT 31/16 A3004 RMK A01 T03140159  RH  040%=      5-min Rain = 0
KTUR 270040Z 15016KT 31/16 A3004 RMK A01 T03120157  RH  040%=      5-min Rain = 0
KTUR 270045Z 15015KT 31/16 A3004 RMK A01 T03110158  RH  040%=      5-min Rain = 0
KTUR 270050Z 15014G19KT 31/15 A3005 RMK A01 T03090154  RH  040%=      5-min Rain = 0
KTUR 270055Z 15015KT 31/15 A3005 RMK A01 T03070154  RH  040%=      5-min Rain = 0
KTUR 270100Z 15014KT 31/16 A3005 RMK A01 T03050157  RH  042%=      5-min Rain = 0
KTUR 270105Z 14014KT 30/16 A3005 RMK A01 T03040159  RH  043%=      5-min Rain = 0
KTUR 270110Z 15014KT 30/16 A3005 RMK A01 T03020159  RH  043%=      5-min Rain = 0
KTUR 270115Z 15014G19KT 30/16 A3005 RMK A01 T03010159  RH  043%=      5-min Rain = 0
KTUR 270120Z 14013G18KT 30/16 A3006 RMK A01 T02990159  RH  044%=      5-min Rain = 0
KTUR 270125Z 14014KT 30/16 A3006 RMK A01 T02980159  RH  044%=      5-min Rain = 0
KTUR 270130Z 14014KT 30/16 A3006 RMK A01 T02970157  RH  044%=      5-min Rain = 0
KTUR 270135Z 14011G16KT 30/16 A3007 RMK A01 T02960158  RH  044%=      5-min Rain = 0
KTUR 270140Z 13010KT 29/16 A3007 RMK A01 T02940161  RH  046%=      5-min Rain = 0
KTUR 270145Z 12010KT 29/17 A3007 RMK A01 T02890170  RH  050%=      5-min Rain = 0
KTUR 270150Z 12012KT 29/17 A3007 RMK A01 T02860172  RH  051%=      5-min Rain = 0
KTUR 270155Z 12011KT 29/17 A3007 RMK A01 T02850173  RH  052%=      5-min Rain = 0
KTUR 270200Z 12011KT 28/17 A3007 RMK A01 T02820173  RH  053%=      5-min Rain = 0
KTUR 270205Z 12012KT 28/17 A3007 RMK A01 T02800173  RH  053%=      5-min Rain = 0
KTUR 270210Z 12012KT 28/17 A3007 RMK A01 T02790174  RH  054%=      5-min Rain = 0
KTUR 270215Z 12011KT 28/17 A3007 RMK A01 T02770174  RH  055%=      5-min Rain = 0
KTUR 270220Z 12011KT 28/18 A3007 RMK A01 T02760175  RH  055%=      5-min Rain = 0
KTUR 270225Z 13011KT 27/18 A3008 RMK A01 T02730175  RH  056%=      5-min Rain = 0
KTUR 270230Z 13010KT 27/18 A3008 RMK A01 T02720175  RH  057%=      5-min Rain = 0
KTUR 270235Z 13010KT 27/18 A3008 RMK A01 T02700175  RH  057%=      5-min Rain = 0
KTUR 270240Z 12010KT 27/18 A3008 RMK A01 T02690175  RH  058%=      5-min Rain = 0
KTUR 270245Z 13010KT 27/18 A3008 RMK A01 T02680175  RH  058%=      5-min Rain = 0
KTUR 270250Z 13010KT 27/18 A3009 RMK A01 T02670175  RH  059%=      5-min Rain = 0
KTUR 270255Z 13010KT 27/18 A3009 RMK A01 T02660175  RH  059%=      5-min Rain = 0
KTUR 270300Z 13009KT 27/18 A301 RMK A01 T02650176  RH  059%=      5-min Rain = 0
KTUR 270305Z 12009KT 26/18 A301 RMK A01 T02640176  RH  060%=      5-min Rain = 0
KTUR 270310Z 13009KT 26/18 A3011 RMK A01 T02620176  RH  060%=      5-min Rain = 0
KTUR 270315Z 13009KT 26/18 A3011 RMK A01 T02620175  RH  060%=      5-min Rain = 0
KTUR 270320Z 13008KT 26/18 A3011 RMK A01 T02600175  RH  061%=      5-min Rain = 0
KTUR 270325Z 13008KT 26/18 A3012 RMK A01 T02590175  RH  062%=      5-min Rain = 0
KTUR 270330Z 14007KT 26/18 A3012 RMK A01 T02580175  RH  062%=      5-min Rain = 0
KTUR 270335Z 14007KT 26/18 A3012 RMK A01 T02570175  RH  062%=      5-min Rain = 0
KTUR 270340Z 15007KT 26/18 A3013 RMK A01 T02570175  RH  062%=      5-min Rain = 0
KTUR 270345Z 15007KT 26/18 A3013 RMK A01 T02560175  RH  062%=      5-min Rain = 0
KTUR 270350Z 15007KT 26/18 A3014 RMK A01 T02550176  RH  063%=      5-min Rain = 0
KTUR 270355Z 16007KT 26/18 A3014 RMK A01 T02550176  RH  063%=      5-min Rain = 0
KTUR 270400Z 15007KT 25/18 A3014 RMK A01 T02540176  RH  063%=      5-min Rain = 0
KTUR 270405Z 15007KT 25/18 A3014 RMK A01 T02540176  RH  064%=      5-min Rain = 0
KTUR 270410Z 14007KT 25/18 A3014 RMK A01 T02530177  RH  064%=      5-min Rain = 0
KTUR 270415Z 14007KT 25/18 A3014 RMK A01 T02520177  RH  065%=      5-min Rain = 0
KTUR 270420Z 14007KT 25/18 A3014 RMK A01 T02510177  RH  065%=      5-min Rain = 0
KTUR 270425Z 14006KT 25/18 A3014 RMK A01 T02500177  RH  065%=      5-min Rain = 0
KTUR 270430Z 14007KT 25/18 A3014 RMK A01 T02480177  RH  066%=      5-min Rain = 0
KTUR 270435Z 14008KT 25/18 A3014 RMK A01 T02480177  RH  066%=      5-min Rain = 0
KTUR 270440Z 14008KT 25/18 A3014 RMK A01 T02490177  RH  066%=      5-min Rain = 0
KTUR 270445Z 14009KT 25/18 A3013 RMK A01 T02500176  RH  065%=      5-min Rain = 0
KTUR 270450Z 14009KT 25/18 A3013 RMK A01 T02480176  RH  066%=      5-min Rain = 0
KTUR 270455Z 14010KT 25/18 A3013 RMK A01 T02470176  RH  066%=      5-min Rain = 0

Page generated in 0.0384 seconds.